createdAt,value
2023-03-22T00:00:01.639Z,99.99
2023-03-22T00:01:01.634Z,99.99
2023-03-22T00:02:00.197Z,99.99
2023-03-22T00:03:00.223Z,99.99
2023-03-22T00:04:01.101Z,99.99
2023-03-22T00:05:01.752Z,99.99
2023-03-22T00:06:00.134Z,99.99
2023-03-22T00:07:00.123Z,99.99
2023-03-22T00:08:00.190Z,99.99
2023-03-22T00:09:00.095Z,99.99
2023-03-22T00:10:01.005Z,99.99
2023-03-22T00:11:00.034Z,99.99
2023-03-22T00:12:00.121Z,99.99
2023-03-22T00:12:59.998Z,99.99
2023-03-22T00:14:00.970Z,99.99
2023-03-22T00:14:59.987Z,99.99
2023-03-22T00:16:01.226Z,99.99
2023-03-22T00:17:00.912Z,99.99
2023-03-22T00:17:59.932Z,99.99
2023-03-22T00:19:00.912Z,99.99
2023-03-22T00:19:59.950Z,99.99
2023-03-22T00:20:59.886Z,99.99
2023-03-22T00:21:59.878Z,99.99
2023-03-22T00:23:00.770Z,99.99
2023-03-22T00:24:00.918Z,99.99
2023-03-22T00:25:00.055Z,99.99
2023-03-22T00:25:59.894Z,99.99
2023-03-22T00:27:00.012Z,99.99
2023-03-22T00:27:59.857Z,99.99
2023-03-22T00:28:59.825Z,99.99
2023-03-22T00:30:03.403Z,99.99
2023-03-22T00:31:01.214Z,99.99
2023-03-22T00:31:59.758Z,99.99
2023-03-22T00:33:00.603Z,99.99
2023-03-22T00:34:00.649Z,99.99
2023-03-22T00:35:00.747Z,99.99
2023-03-22T00:36:00.473Z,99.99
2023-03-22T00:37:01.832Z,99.99
2023-03-22T00:37:59.883Z,99.99
2023-03-22T00:38:59.696Z,99.99
2023-03-22T00:40:02.209Z,99.99
2023-03-22T00:41:01.005Z,99.99
2023-03-22T00:41:59.770Z,99.99
2023-03-22T00:42:59.602Z,99.99
2023-03-22T00:43:59.636Z,99.99
2023-03-22T00:44:59.589Z,99.99
2023-03-22T00:46:00.703Z,99.99
2023-03-22T00:46:59.574Z,99.99
2023-03-22T00:48:00.742Z,99.99
2023-03-22T00:48:59.697Z,99.99
2023-03-22T00:49:59.556Z,99.99
2023-03-22T00:50:59.564Z,99.99
2023-03-22T00:51:59.510Z,99.99
2023-03-22T00:52:59.513Z,99.99
2023-03-22T00:53:59.500Z,99.99
2023-03-22T00:54:59.494Z,99.99
2023-03-22T00:55:59.978Z,99.99
2023-03-22T00:56:59.575Z,99.99
2023-03-22T00:57:59.455Z,99.99
2023-03-22T00:58:59.437Z,99.99
2023-03-22T00:59:59.428Z,99.99
2023-03-22T01:00:59.489Z,99.99
2023-03-22T01:01:59.407Z,99.99
2023-03-22T01:02:59.707Z,99.99
2023-03-22T01:03:59.439Z,99.99
2023-03-22T01:04:59.327Z,99.99
2023-03-22T01:05:59.462Z,99.99
2023-03-22T01:07:00.316Z,99.99
2023-03-22T01:07:59.440Z,99.99
2023-03-22T01:08:59.324Z,99.99
2023-03-22T01:09:59.295Z,99.99
2023-03-22T01:10:59.278Z,99.99
2023-03-22T01:11:59.259Z,99.99
2023-03-22T01:12:59.254Z,99.99
2023-03-22T01:13:59.236Z,99.99
2023-03-22T01:14:59.194Z,99.99
2023-03-22T01:15:59.728Z,99.99
2023-03-22T01:16:59.287Z,99.99
2023-03-22T01:17:59.185Z,99.99
2023-03-22T01:18:59.158Z,99.99
2023-03-22T01:20:00.189Z,99.99
2023-03-22T01:20:59.185Z,99.99
2023-03-22T01:21:59.171Z,99.99
2023-03-22T01:22:59.175Z,99.99
2023-03-22T01:23:59.225Z,99.99
2023-03-22T01:24:59.092Z,99.99
2023-03-22T01:25:59.107Z,99.99
2023-03-22T01:26:59.115Z,99.99
2023-03-22T01:27:59.279Z,99.99
2023-03-22T01:28:59.091Z,99.99
2023-03-22T01:29:59.052Z,99.99
2023-03-22T01:30:59.061Z,99.99
2023-03-22T01:31:59.032Z,99.99
2023-03-22T01:32:59.001Z,99.99
2023-03-22T01:33:58.944Z,99.99
2023-03-22T01:34:58.948Z,99.99
2023-03-22T01:35:59.033Z,99.99
2023-03-22T01:36:59.110Z,99.99
2023-03-22T01:37:59.993Z,99.99
2023-03-22T01:38:58.916Z,99.99
2023-03-22T01:39:59.111Z,99.99
2023-03-22T01:40:59.287Z,99.99
2023-03-22T01:41:58.863Z,99.99
2023-03-22T01:42:58.898Z,99.99
2023-03-22T01:43:58.831Z,99.99
2023-03-22T01:44:59.000Z,99.99
2023-03-22T01:45:59.823Z,99.99
2023-03-22T01:46:58.821Z,99.99
2023-03-22T01:47:59.453Z,99.99
2023-03-22T01:48:58.811Z,99.99
2023-03-22T01:49:58.914Z,99.99
2023-03-22T01:50:59.808Z,99.99
2023-03-22T01:51:58.756Z,99.99
2023-03-22T01:52:59.707Z,99.99
2023-03-22T01:53:58.738Z,99.99
2023-03-22T01:54:58.693Z,99.99
2023-03-22T01:55:58.729Z,99.99
2023-03-22T01:56:58.705Z,99.99
2023-03-22T01:57:58.668Z,99.99
2023-03-22T01:58:58.635Z,99.99
2023-03-22T01:59:58.636Z,99.99
2023-03-22T02:00:58.653Z,99.99
2023-03-22T02:01:58.599Z,99.99
2023-03-22T02:03:00.096Z,99.99
2023-03-22T02:03:58.932Z,99.99
2023-03-22T02:04:58.674Z,99.99
2023-03-22T02:05:58.595Z,99.99
2023-03-22T02:06:58.575Z,99.99
2023-03-22T02:07:58.571Z,99.99
2023-03-22T02:08:59.458Z,99.99
2023-03-22T02:09:59.505Z,99.99
2023-03-22T02:10:58.765Z,99.99
2023-03-22T02:11:58.509Z,99.99
2023-03-22T02:12:58.522Z,99.99
2023-03-22T02:13:58.435Z,99.99
2023-03-22T02:14:58.436Z,99.99
2023-03-22T02:15:58.465Z,99.99
2023-03-22T02:16:58.557Z,99.99
2023-03-22T02:17:58.419Z,99.99
2023-03-22T02:18:58.492Z,99.99
2023-03-22T02:19:58.398Z,99.99
2023-03-22T02:20:58.350Z,99.99
2023-03-22T02:21:58.359Z,99.99
2023-03-22T02:22:58.334Z,99.99
2023-03-22T02:23:58.392Z,99.99
2023-03-22T02:24:58.504Z,99.99
2023-03-22T02:25:58.450Z,99.99
2023-03-22T02:26:58.271Z,99.99
2023-03-22T02:27:59.017Z,99.99
2023-03-22T02:28:58.352Z,99.99
2023-03-22T02:29:58.332Z,99.99
2023-03-22T02:30:58.708Z,99.99
2023-03-22T02:31:58.255Z,99.99
2023-03-22T02:32:58.233Z,99.99
2023-03-22T02:33:58.207Z,99.99
2023-03-22T02:34:58.192Z,99.99
2023-03-22T02:35:58.256Z,99.99
2023-03-22T02:36:58.161Z,99.99
2023-03-22T02:37:58.211Z,99.99
2023-03-22T02:38:58.148Z,99.99
2023-03-22T02:39:58.135Z,99.99
2023-03-22T02:40:58.142Z,99.99
2023-03-22T02:41:58.974Z,99.99
2023-03-22T02:42:58.874Z,99.99
2023-03-22T02:43:58.112Z,99.99
2023-03-22T02:44:59.192Z,99.99
2023-03-22T02:45:58.244Z,99.99
2023-03-22T02:46:58.060Z,99.99
2023-03-22T02:47:58.166Z,99.99
2023-03-22T02:48:58.013Z,99.99
2023-03-22T02:49:58.187Z,99.99
2023-03-22T02:50:58.096Z,99.99
2023-03-22T02:51:58.091Z,99.99
2023-03-22T02:52:57.974Z,99.99
2023-03-22T02:53:57.929Z,99.99
2023-03-22T02:54:57.996Z,99.99
2023-03-22T02:55:59.164Z,99.99
2023-03-22T02:56:57.908Z,99.99
2023-03-22T02:57:58.973Z,99.99
2023-03-22T02:58:57.862Z,99.99
2023-03-22T02:59:57.872Z,99.99
2023-03-22T03:00:58.713Z,99.99
2023-03-22T03:01:57.923Z,99.99
2023-03-22T03:02:57.957Z,99.99
2023-03-22T03:03:57.924Z,99.99
2023-03-22T03:04:57.864Z,99.99
2023-03-22T03:05:57.824Z,99.99
2023-03-22T03:06:57.910Z,99.91
2023-03-22T03:07:59.033Z,99.81
2023-03-22T03:08:58.934Z,99.81
2023-03-22T03:09:57.856Z,99.71
2023-03-22T03:10:57.725Z,99.71
2023-03-22T03:11:57.706Z,99.71
2023-03-22T03:12:57.700Z,99.71
2023-03-22T03:13:57.684Z,99.56
2023-03-22T03:14:57.739Z,99.46
2023-03-22T03:15:57.737Z,99.46
2023-03-22T03:16:57.850Z,99.35
2023-03-22T03:17:57.607Z,99.35
2023-03-22T03:18:57.642Z,99.25
2023-03-22T03:19:57.696Z,99.25
2023-03-22T03:20:58.593Z,99.15
2023-03-22T03:21:57.608Z,99.15
2023-03-22T03:22:57.569Z,99.05
2023-03-22T03:23:57.607Z,98.94
2023-03-22T03:24:57.609Z,98.94
2023-03-22T03:25:57.730Z,99.05
2023-03-22T03:26:58.756Z,99.05
2023-03-22T03:27:57.639Z,98.94
2023-03-22T03:28:57.555Z,98.84
2023-03-22T03:29:57.490Z,98.74
2023-03-22T03:30:57.473Z,98.74
2023-03-22T03:31:57.509Z,98.63
2023-03-22T03:32:57.440Z,98.63
2023-03-22T03:33:57.552Z,98.63
2023-03-22T03:34:57.449Z,98.63
2023-03-22T03:35:57.470Z,98.63
2023-03-22T03:36:57.453Z,98.59
2023-03-22T03:37:57.405Z,98.49
2023-03-22T03:38:57.342Z,98.49
2023-03-22T03:39:58.521Z,98.38
2023-03-22T03:40:57.352Z,98.28
2023-03-22T03:41:57.333Z,98.28
2023-03-22T03:42:57.328Z,98.18
2023-03-22T03:43:57.368Z,98.18
2023-03-22T03:44:57.374Z,98.07
2023-03-22T03:45:57.642Z,97.97
2023-03-22T03:46:57.410Z,97.97
2023-03-22T03:47:58.082Z,97.97
2023-03-22T03:48:58.523Z,97.97
2023-03-22T03:49:57.232Z,98.07
2023-03-22T03:50:57.232Z,98.07
2023-03-22T03:51:57.224Z,98.07
2023-03-22T03:52:57.194Z,98.07
2023-03-22T03:53:57.271Z,98.07
2023-03-22T03:54:57.431Z,98.18
2023-03-22T03:55:58.051Z,98.18
2023-03-22T03:56:57.206Z,98.28
2023-03-22T03:57:57.170Z,98.28
2023-03-22T03:58:58.106Z,98.38
2023-03-22T03:59:57.518Z,98.38
2023-03-22T04:00:57.519Z,98.38
2023-03-22T04:01:57.096Z,98.38
2023-03-22T04:02:57.066Z,98.49
2023-03-22T04:03:57.114Z,98.49
2023-03-22T04:04:57.311Z,98.49
2023-03-22T04:05:57.006Z,98.49
2023-03-22T04:06:57.007Z,98.38
2023-03-22T04:07:57.905Z,98.38
2023-03-22T04:08:57.258Z,98.28
2023-03-22T04:09:57.028Z,98.18
2023-03-22T04:10:56.944Z,98.18
2023-03-22T04:11:56.944Z,98.18
2023-03-22T04:12:56.956Z,98.18
2023-03-22T04:13:57.703Z,98.18
2023-03-22T04:14:56.942Z,98.18
2023-03-22T04:15:58.156Z,98.07
2023-03-22T04:16:56.982Z,98.18
2023-03-22T04:17:57.960Z,98.18
2023-03-22T04:18:56.846Z,98.28
2023-03-22T04:19:56.842Z,98.18
2023-03-22T04:20:56.834Z,98.18
2023-03-22T04:21:56.859Z,98.28
2023-03-22T04:22:56.835Z,98.28
2023-03-22T04:23:56.869Z,98.38
2023-03-22T04:24:57.763Z,98.38
2023-03-22T04:25:57.692Z,98.49
2023-03-22T04:26:56.877Z,98.59
2023-03-22T04:30:21.426Z,98.49
2023-03-22T04:31:19.989Z,98.38
2023-03-22T04:32:20.007Z,98.38
2023-03-22T04:33:19.884Z,98.38
2023-03-22T04:34:19.887Z,98.49
2023-03-22T04:35:19.877Z,98.49
2023-03-22T04:36:19.994Z,98.49
2023-03-22T04:37:19.850Z,98.59
2023-03-22T04:38:19.819Z,98.49
2023-03-22T04:39:19.853Z,98.49
2023-03-22T04:40:19.770Z,98.49
2023-03-22T04:41:19.844Z,98.59
2023-03-22T04:42:19.765Z,98.59
2023-03-22T04:43:19.770Z,98.59
2023-03-22T04:44:20.545Z,98.63
2023-03-22T04:45:19.735Z,98.59
2023-03-22T04:46:19.797Z,98.59
2023-03-22T04:47:19.793Z,98.63
2023-03-22T04:48:19.748Z,98.63
2023-03-22T04:49:19.704Z,98.74
2023-03-22T04:50:19.648Z,98.74
2023-03-22T04:51:19.767Z,98.84
2023-03-22T04:52:19.629Z,98.84
2023-03-22T04:53:19.649Z,98.74
2023-03-22T04:54:19.591Z,98.84
2023-03-22T04:55:20.296Z,98.84
2023-03-22T04:56:19.673Z,98.94
2023-03-22T04:57:19.583Z,98.94
2023-03-22T04:58:19.560Z,99.05
2023-03-22T04:59:19.551Z,99.05
2023-03-22T05:00:19.544Z,98.94
2023-03-22T05:01:19.574Z,99.05
2023-03-22T05:02:19.602Z,98.94
2023-03-22T05:03:19.495Z,98.94
2023-03-22T05:04:19.503Z,98.79
2023-03-22T05:05:19.444Z,98.84
2023-03-22T05:06:19.481Z,98.69
2023-03-22T05:07:19.434Z,98.84
2023-03-22T05:08:19.427Z,98.84
2023-03-22T05:09:22.112Z,98.84
2023-03-22T05:10:19.725Z,98.84
2023-03-22T05:11:19.433Z,98.94
2023-03-22T05:12:19.360Z,98.94
2023-03-22T05:13:19.356Z,99.05
2023-03-22T05:14:19.341Z,99.05
2023-03-22T05:15:19.330Z,99.15
2023-03-22T05:16:19.377Z,99.15
2023-03-22T05:17:19.295Z,99.05
2023-03-22T05:18:19.341Z,99.05
2023-03-22T05:19:19.334Z,99.05
2023-03-22T05:20:20.740Z,99.05
2023-03-22T05:21:19.269Z,99.05
2023-03-22T05:22:19.667Z,99.05
2023-03-22T05:23:19.281Z,99.05
2023-03-22T05:24:19.304Z,98.90
2023-03-22T05:25:19.219Z,98.94
2023-03-22T05:26:19.353Z,98.90
2023-03-22T05:27:19.226Z,98.79
2023-03-22T05:28:19.158Z,98.69
2023-03-22T05:29:19.138Z,98.69
2023-03-22T05:30:19.134Z,98.69
2023-03-22T05:31:19.140Z,98.59
2023-03-22T05:32:19.140Z,98.49
2023-03-22T05:33:19.103Z,98.38
2023-03-22T05:34:19.107Z,98.28
2023-03-22T05:35:19.376Z,98.18
2023-03-22T05:36:19.083Z,98.03
2023-03-22T05:37:19.091Z,97.92
2023-03-22T05:38:19.082Z,97.82
2023-03-22T05:39:19.096Z,97.72
2023-03-22T05:40:19.034Z,97.62
2023-03-22T05:41:18.998Z,97.62
2023-03-22T05:42:19.062Z,97.52
2023-03-22T05:43:18.988Z,97.62
2023-03-22T05:44:18.976Z,97.52
2023-03-22T05:45:18.987Z,97.62
2023-03-22T05:46:19.232Z,97.52
2023-03-22T05:47:20.130Z,97.52
2023-03-22T05:48:19.083Z,97.41
2023-03-22T05:49:18.910Z,97.41
2023-03-22T05:50:18.870Z,97.27
2023-03-22T05:51:18.908Z,97.16
2023-03-22T05:52:18.982Z,97.16
2023-03-22T05:53:18.849Z,97.06
2023-03-22T05:55:38.045Z,97.16
2023-03-22T05:56:38.120Z,96.95
2023-03-22T05:57:37.971Z,96.95
2023-03-22T05:58:37.947Z,96.95
2023-03-22T05:59:37.962Z,96.95
2023-03-22T06:00:38.169Z,96.95
2023-03-22T06:01:37.904Z,96.95
2023-03-22T06:02:37.901Z,96.95
2023-03-22T06:03:37.918Z,96.95
2023-03-22T06:04:38.107Z,96.95
2023-03-22T06:05:37.883Z,96.95
2023-03-22T06:06:37.824Z,96.95
2023-03-22T06:07:37.834Z,96.85
2023-03-22T06:08:38.785Z,96.75
2023-03-22T06:09:37.803Z,96.60
2023-03-22T06:10:38.945Z,96.50
2023-03-22T06:11:37.775Z,96.60
2023-03-22T06:12:37.846Z,96.30
2023-03-22T06:13:37.740Z,96.30
2023-03-22T06:14:37.816Z,96.40
2023-03-22T06:15:37.776Z,96.19
2023-03-22T06:16:37.754Z,96.09
2023-03-22T06:17:37.798Z,96.09
2023-03-22T06:18:37.682Z,96.09
2023-03-22T06:19:37.690Z,96.09
2023-03-22T06:20:38.032Z,95.98
2023-03-22T06:21:37.801Z,95.84
2023-03-22T06:22:37.693Z,95.64
2023-03-22T06:23:37.669Z,95.64
2023-03-22T06:24:37.627Z,95.43
2023-03-22T06:25:37.607Z,95.32
2023-03-22T06:26:37.619Z,95.32
2023-03-22T06:27:37.786Z,95.18
2023-03-22T06:28:38.719Z,94.98
2023-03-22T06:29:38.629Z,94.77
2023-03-22T06:30:37.767Z,94.87
2023-03-22T06:31:37.516Z,94.93
2023-03-22T06:32:37.491Z,94.62
2023-03-22T06:33:37.590Z,94.73
2023-03-22T06:34:37.517Z,94.42
2023-03-22T06:35:37.584Z,94.42
2023-03-22T06:36:37.459Z,94.42
2023-03-22T06:37:37.414Z,94.17
2023-03-22T06:38:37.411Z,93.86
2023-03-22T06:39:37.452Z,93.96
2023-03-22T06:40:37.499Z,94.27
2023-03-22T06:41:37.765Z,94.07
2023-03-22T06:42:38.401Z,94.37
2023-03-22T06:43:37.410Z,94.37
2023-03-22T06:44:37.355Z,94.21
2023-03-22T06:45:37.334Z,94.11
2023-03-22T06:46:38.522Z,94.01
2023-03-22T06:47:37.350Z,94.01
2023-03-22T06:48:37.309Z,94.11
2023-03-22T06:49:37.267Z,93.90
2023-03-22T06:50:37.475Z,93.90
2023-03-22T06:51:37.232Z,94.11
2023-03-22T06:52:37.213Z,94.21
2023-03-22T06:53:37.228Z,94.42
2023-03-22T06:54:37.191Z,94.11
2023-03-22T06:55:38.160Z,94.11
2023-03-22T06:56:37.151Z,94.21
2023-03-22T06:57:37.191Z,94.21
2023-03-22T06:58:37.191Z,93.76
2023-03-22T06:59:37.142Z,93.86
2023-03-22T07:00:37.541Z,93.55
2023-03-22T07:01:37.193Z,93.55
2023-03-22T07:02:38.048Z,93.76
2023-03-22T07:03:37.105Z,93.55
2023-03-22T07:04:37.145Z,93.20
2023-03-22T07:05:37.066Z,93.30
2023-03-22T07:06:38.134Z,93.00
2023-03-22T07:07:38.046Z,93.00
2023-03-22T07:08:38.010Z,93.10
2023-03-22T07:09:36.989Z,92.65
2023-03-22T07:10:37.140Z,92.55
2023-03-22T07:11:36.958Z,92.24
2023-03-22T07:12:37.218Z,91.63
2023-03-22T07:13:36.950Z,91.38
2023-03-22T07:14:37.090Z,91.69
2023-03-22T07:15:36.949Z,91.58
2023-03-22T07:16:36.926Z,91.17
2023-03-22T07:17:36.890Z,91.13
2023-03-22T07:18:36.883Z,90.82
2023-03-22T07:19:36.917Z,91.13
2023-03-22T07:20:37.012Z,91.23
2023-03-22T07:21:38.296Z,90.92
2023-03-22T07:22:36.828Z,91.13
2023-03-22T07:23:36.822Z,90.72
2023-03-22T07:24:44.592Z,90.78
2023-03-22T07:25:38.876Z,90.99
2023-03-22T07:26:36.814Z,90.37
2023-03-22T07:27:36.771Z,90.99
2023-03-22T07:28:36.912Z,91.50
2023-03-22T07:29:36.752Z,90.17
2023-03-22T07:30:36.732Z,90.06
2023-03-22T07:31:36.924Z,90.37
2023-03-22T07:32:36.992Z,90.37
2023-03-22T07:33:37.142Z,89.35
2023-03-22T07:34:36.709Z,89.86
2023-03-22T07:35:36.666Z,90.27
2023-03-22T07:36:36.634Z,90.17
2023-03-22T07:37:37.603Z,89.51
2023-03-22T07:38:36.634Z,89.61
2023-03-22T07:39:36.647Z,89.31
2023-03-22T07:40:37.638Z,89.51
2023-03-22T07:41:36.599Z,89.61
2023-03-22T07:42:36.565Z,89.00
2023-03-22T07:43:50.862Z,89.41
2023-03-22T07:44:38.588Z,88.90
2023-03-22T07:45:36.621Z,89.06
2023-03-22T07:46:36.568Z,89.26
2023-03-22T07:47:41.139Z,89.47
2023-03-22T07:48:37.571Z,89.26
2023-03-22T07:52:32.347Z,89.12
2023-03-22T07:52:56.745Z,88.61
2023-03-22T07:53:56.678Z,88.92
2023-03-22T07:54:56.719Z,88.92
2023-03-22T07:55:56.657Z,88.88
2023-03-22T07:56:56.666Z,88.06
2023-03-22T07:57:56.673Z,88.06
2023-03-22T07:58:56.762Z,88.57
2023-03-22T07:59:56.657Z,87.55
2023-03-22T08:00:56.919Z,88.26
2023-03-22T08:01:56.691Z,88.37
2023-03-22T08:02:56.641Z,87.55
2023-03-22T08:03:56.538Z,87.85
2023-03-22T08:04:56.801Z,88.26
2023-03-22T08:05:57.570Z,86.83
2023-03-22T08:06:57.313Z,88.37
2023-03-22T08:07:56.651Z,87.65
2023-03-22T08:08:56.508Z,88.47
2023-03-22T08:09:58.255Z,87.24
2023-03-22T08:10:56.478Z,86.83
2023-03-22T08:11:56.471Z,87.35
2023-03-22T08:12:56.627Z,87.35
2023-03-22T08:13:56.815Z,87.92
2023-03-22T08:14:56.724Z,86.90
2023-03-22T08:15:57.416Z,87.24
2023-03-22T08:16:56.394Z,86.80
2023-03-22T08:17:56.393Z,86.69
2023-03-22T08:18:56.356Z,86.59
2023-03-22T08:19:56.368Z,87.67
2023-03-22T08:20:56.492Z,85.53
2023-03-22T08:21:56.301Z,85.53
2023-03-22T08:22:56.313Z,85.22
2023-03-22T08:23:56.421Z,85.94
2023-03-22T08:24:56.299Z,85.39
2023-03-22T08:25:56.520Z,85.49
2023-03-22T08:26:56.580Z,85.08
2023-03-22T08:27:56.228Z,84.88
2023-03-22T08:28:56.247Z,84.27
2023-03-22T08:29:56.234Z,85.19
2023-03-22T08:30:56.237Z,84.53
2023-03-22T08:31:56.259Z,83.82
2023-03-22T08:32:56.166Z,84.03
2023-03-22T08:33:56.146Z,84.74
2023-03-22T08:34:56.140Z,85.14
2023-03-22T08:35:56.734Z,85.92
2023-03-22T08:36:56.127Z,84.59
2023-03-22T08:37:56.120Z,82.87
2023-03-22T08:38:56.742Z,83.27
2023-03-22T08:39:56.149Z,83.74
2023-03-22T08:40:56.112Z,82.73
2023-03-22T08:41:56.117Z,82.62
2023-03-22T08:42:56.039Z,83.03
2023-03-22T08:43:56.026Z,82.52
2023-03-22T08:44:56.023Z,83.44
2023-03-22T08:45:56.643Z,82.93
2023-03-22T08:46:56.092Z,82.21
2023-03-22T08:47:55.995Z,82.32
2023-03-22T08:48:56.329Z,82.93
2023-03-22T08:49:56.146Z,82.32
2023-03-22T08:50:55.972Z,81.81
2023-03-22T08:51:56.737Z,81.77
2023-03-22T08:52:56.065Z,81.46
2023-03-22T08:53:55.899Z,81.46
2023-03-22T08:54:55.886Z,81.37
2023-03-22T08:55:56.040Z,81.16
2023-03-22T08:56:55.903Z,80.45
2023-03-22T08:57:55.862Z,80.72
2023-03-22T08:58:55.838Z,81.02
2023-03-22T08:59:55.819Z,79.90
2023-03-22T09:00:55.907Z,80.00
2023-03-22T09:01:56.057Z,81.63
2023-03-22T09:02:55.806Z,80.21
2023-03-22T09:03:55.770Z,80.62
2023-03-22T09:04:56.724Z,80.07
2023-03-22T09:05:55.799Z,80.37
2023-03-22T09:06:55.744Z,79.16
2023-03-22T09:08:00.577Z,80.07
2023-03-22T09:08:56.694Z,79.36
2023-03-22T09:09:55.682Z,79.16
2023-03-22T09:10:55.777Z,80.17
2023-03-22T09:11:55.723Z,79.36
2023-03-22T09:12:55.653Z,80.33
2023-03-22T09:13:55.607Z,79.83
2023-03-22T09:14:56.950Z,79.32
2023-03-22T09:15:55.684Z,78.91
2023-03-22T09:16:55.730Z,80.44
2023-03-22T09:17:55.603Z,78.88
2023-03-22T09:18:55.541Z,78.88
2023-03-22T09:20:11.129Z,78.41
2023-03-22T09:20:56.587Z,77.39
2023-03-22T09:21:55.534Z,77.73
2023-03-22T09:22:55.545Z,78.34
2023-03-22T09:23:55.494Z,78.95
2023-03-22T09:24:55.470Z,78.14
2023-03-22T09:25:55.533Z,77.73
2023-03-22T09:26:56.143Z,79.05
2023-03-22T09:27:55.441Z,79.42
2023-03-22T09:28:55.439Z,79.32
2023-03-22T09:29:56.525Z,79.22
2023-03-22T09:30:55.574Z,78.71
2023-03-22T09:31:55.609Z,78.20
2023-03-22T09:32:55.396Z,78.00
2023-03-22T09:33:55.365Z,78.00
2023-03-22T09:34:56.309Z,78.06
2023-03-22T09:35:55.343Z,77.86
2023-03-22T09:36:57.504Z,77.25
2023-03-22T09:37:55.322Z,76.95
2023-03-22T09:38:55.858Z,77.36
2023-03-22T09:39:55.255Z,77.15
2023-03-22T09:40:55.285Z,77.25
2023-03-22T09:41:55.261Z,77.45
2023-03-22T09:42:56.446Z,76.75
2023-03-22T09:43:56.343Z,77.66
2023-03-22T09:44:55.308Z,76.95
2023-03-22T09:45:56.208Z,76.95
2023-03-22T09:46:55.233Z,76.68
2023-03-22T09:47:55.195Z,77.29
2023-03-22T09:48:56.381Z,76.88
2023-03-22T09:49:55.152Z,76.98
2023-03-22T09:50:55.165Z,76.98
2023-03-22T09:51:55.293Z,77.80
2023-03-22T09:52:55.138Z,76.88
2023-03-22T09:53:55.101Z,76.88
2023-03-22T09:54:55.081Z,77.09
2023-03-22T09:55:56.216Z,76.98
2023-03-22T09:56:55.136Z,76.17
2023-03-22T09:57:55.182Z,76.28
2023-03-22T09:58:55.020Z,75.87
2023-03-22T09:59:55.016Z,77.19
2023-03-22T10:00:55.037Z,76.24
2023-03-22T10:01:55.209Z,76.14
2023-03-22T10:02:55.139Z,76.75
2023-03-22T10:03:54.992Z,75.73
2023-03-22T10:04:55.025Z,75.43
2023-03-22T10:05:54.988Z,76.28
2023-03-22T10:06:54.988Z,76.03
2023-03-22T10:07:54.927Z,76.14
2023-03-22T10:08:55.998Z,76.34
2023-03-22T10:09:54.980Z,76.75
2023-03-22T10:10:54.998Z,77.05
2023-03-22T10:11:55.934Z,77.56
2023-03-22T10:12:54.887Z,76.64
2023-03-22T10:13:54.977Z,77.05
2023-03-22T10:14:54.928Z,76.03
2023-03-22T10:15:55.066Z,77.05
2023-03-22T10:16:56.498Z,76.51
2023-03-22T10:17:54.805Z,76.10
2023-03-22T10:18:54.803Z,76.20
2023-03-22T10:19:54.807Z,75.90
2023-03-22T10:20:54.743Z,75.90
2023-03-22T10:21:54.750Z,75.70
2023-03-22T10:22:54.738Z,75.70
2023-03-22T10:23:54.733Z,75.70
2023-03-22T10:24:54.727Z,74.88
2023-03-22T10:25:54.741Z,74.78
2023-03-22T10:26:54.736Z,74.78
2023-03-22T10:27:54.646Z,74.65
2023-03-22T10:28:54.641Z,73.36
2023-03-22T10:29:54.700Z,74.04
2023-03-22T10:30:54.624Z,73.83
2023-03-22T10:31:54.658Z,74.65
2023-03-22T10:32:57.778Z,74.41
2023-03-22T10:33:55.457Z,74.71
2023-03-22T10:34:55.539Z,72.08
2023-03-22T10:35:55.519Z,72.68
2023-03-22T10:36:55.471Z,73.56
2023-03-22T10:37:54.535Z,73.46
2023-03-22T10:38:54.520Z,73.12
2023-03-22T10:39:54.496Z,73.02
2023-03-22T10:40:54.495Z,71.26
2023-03-22T10:41:56.380Z,72.17
2023-03-22T10:42:54.445Z,70.45
2023-03-22T10:43:54.476Z,71.16
2023-03-22T10:44:54.444Z,71.37
2023-03-22T10:45:55.526Z,71.44
2023-03-22T10:46:54.470Z,70.22
2023-03-22T10:47:54.986Z,71.00
2023-03-22T10:48:54.498Z,70.18
2023-03-22T10:49:54.360Z,69.34
2023-03-22T10:50:54.390Z,68.84
2023-03-22T10:51:54.333Z,69.55
2023-03-22T10:52:55.365Z,67.96
2023-03-22T10:53:54.559Z,67.55
2023-03-22T10:54:54.284Z,67.99
2023-03-22T10:55:55.072Z,68.40
2023-03-22T10:56:54.280Z,67.79
2023-03-22T10:57:54.232Z,68.10
2023-03-22T10:58:54.225Z,67.99
2023-03-22T10:59:54.213Z,68.60
2023-03-22T11:00:54.330Z,68.50
2023-03-22T11:01:54.529Z,68.50
2023-03-22T11:02:54.222Z,69.01
2023-03-22T11:03:54.194Z,68.10
2023-03-22T11:04:54.143Z,68.87
2023-03-22T11:05:54.190Z,68.16
2023-03-22T11:06:56.199Z,67.55
2023-03-22T11:07:54.238Z,67.25
2023-03-22T11:08:55.579Z,66.17
2023-03-22T11:09:54.108Z,67.18
2023-03-22T11:10:54.172Z,67.18
2023-03-22T11:11:54.125Z,66.17
2023-03-22T11:12:54.977Z,67.15
2023-03-22T11:13:54.076Z,66.64
2023-03-22T11:14:54.012Z,65.73
2023-03-22T11:15:55.202Z,66.61
2023-03-22T11:16:54.008Z,65.64
2023-03-22T11:17:54.140Z,66.35
2023-03-22T11:18:54.003Z,66.55
2023-03-22T11:19:54.068Z,67.05
2023-03-22T11:20:53.960Z,66.04
2023-03-22T11:21:53.943Z,65.91
2023-03-22T11:22:53.955Z,64.29
2023-03-22T11:23:53.941Z,64.93
2023-03-22T11:24:53.948Z,64.73
2023-03-22T11:25:54.826Z,65.23
2023-03-22T11:26:53.908Z,65.94
2023-03-22T11:27:53.860Z,65.43
2023-03-22T11:28:53.833Z,64.42
2023-03-22T11:29:53.869Z,64.59
2023-03-22T11:30:53.817Z,65.00
2023-03-22T11:31:55.822Z,63.99
2023-03-22T11:32:53.824Z,63.89
2023-03-22T11:33:53.813Z,64.39
2023-03-22T11:34:53.779Z,63.89
2023-03-22T11:35:53.921Z,63.99
2023-03-22T11:36:53.718Z,63.25
2023-03-22T11:37:54.628Z,63.25
2023-03-22T11:38:53.723Z,62.44
2023-03-22T11:39:54.943Z,63.05
2023-03-22T11:40:53.688Z,61.94
2023-03-22T11:41:53.697Z,61.94
2023-03-22T11:42:53.846Z,62.07
2023-03-22T11:43:54.187Z,63.15
2023-03-22T11:44:53.631Z,62.54
2023-03-22T11:45:53.659Z,62.34
2023-03-22T11:46:53.606Z,61.13
2023-03-22T11:47:53.719Z,61.53
2023-03-22T11:48:53.628Z,61.53
2023-03-22T11:49:54.504Z,61.60
2023-03-22T11:50:53.592Z,61.83
2023-03-22T11:51:53.651Z,62.21
2023-03-22T11:52:53.684Z,60.75
2023-03-22T11:53:53.638Z,61.94
2023-03-22T11:54:53.479Z,62.44
2023-03-22T11:55:54.443Z,61.94
2023-03-22T11:56:53.471Z,62.74
2023-03-22T11:57:53.478Z,62.74
2023-03-22T11:58:53.452Z,62.82
2023-03-22T11:59:53.480Z,63.22
2023-03-22T12:00:53.503Z,62.31
2023-03-22T12:01:53.621Z,61.73
2023-03-22T12:02:53.470Z,61.03
2023-03-22T12:03:53.495Z,61.83
2023-03-22T12:04:53.553Z,61.76
2023-03-22T12:05:54.498Z,62.67
2023-03-22T12:06:53.422Z,61.76
2023-03-22T12:07:53.316Z,61.76
2023-03-22T12:08:53.314Z,62.16
2023-03-22T12:09:53.305Z,62.16
2023-03-22T12:10:53.296Z,62.67
2023-03-22T12:11:53.252Z,63.05
2023-03-22T12:12:53.255Z,63.25
2023-03-22T12:13:53.224Z,62.34
2023-03-22T12:14:54.690Z,60.75
2023-03-22T12:15:53.372Z,61.66
2023-03-22T12:16:53.270Z,61.25
2023-03-22T12:17:54.426Z,62.07
2023-03-22T12:18:53.168Z,62.87
2023-03-22T12:19:53.165Z,62.47
2023-03-22T12:20:53.237Z,61.56
2023-03-22T12:21:53.159Z,60.35
2023-03-22T12:22:53.128Z,61.96
2023-03-22T12:23:53.093Z,61.25
2023-03-22T12:24:53.182Z,61.05
2023-03-22T12:25:53.145Z,60.35
2023-03-22T12:26:53.132Z,60.75
2023-03-22T12:27:53.089Z,60.65
2023-03-22T12:28:53.050Z,61.36
2023-03-22T12:29:53.043Z,59.94
2023-03-22T12:30:53.107Z,60.25
2023-03-22T12:31:53.088Z,59.97
2023-03-22T12:32:53.020Z,59.77
2023-03-22T12:33:52.963Z,59.87
2023-03-22T12:34:57.951Z,60.68
2023-03-22T12:35:54.378Z,60.07
2023-03-22T12:36:52.944Z,60.98
2023-03-22T12:37:52.929Z,60.58
2023-03-22T12:38:52.958Z,60.58
2023-03-22T12:39:52.887Z,61.29
2023-03-22T12:40:52.882Z,60.78
2023-03-22T12:41:52.963Z,60.48
2023-03-22T12:42:55.584Z,60.96
2023-03-22T12:43:53.846Z,60.55
2023-03-22T12:45:04.040Z,60.14
2023-03-22T12:45:54.524Z,60.12
2023-03-22T12:46:53.040Z,60.32
2023-03-22T12:47:52.967Z,60.12
2023-03-22T12:48:52.856Z,59.91
2023-03-22T12:49:52.810Z,59.91
2023-03-22T12:50:53.036Z,60.12
2023-03-22T12:51:52.773Z,60.62
2023-03-22T12:52:54.295Z,60.02
2023-03-22T12:53:52.763Z,60.82
2023-03-22T12:54:52.680Z,60.72
2023-03-22T12:55:52.698Z,60.82
2023-03-22T12:56:53.708Z,60.62
2023-03-22T12:57:52.740Z,60.42